Terminal Aerodrome Forecast
Issued by NWS

Home | Current Version | Previous Version | Text Only | Print | Product List | Glossary On
Versions: 1 2 3 4 5 6 7 8 9 10 11 12 13 14 15 16 17 18 19 20 21 22 23 24
000
FTPA31 PHFO 260500
TAFOGG
TAF
PHOG 260520Z 2606/2706 19007KT P6SM BKN050
     FM261800 VRB05KT P6SM SCT050
     FM262100 31005KT P6SM FEW030 SCT050
     FM270300 36008KT P6SM VCSH FEW025 BKN045
      AMD LTD TO WX VIS AND WIND 2609/2616=

USA.gov is the U.S. government's official web portal to all federal, state and local government web resources and services.